Time;durP1;ratioP1;P1;durP2;ratioP2;P2;SDS_P1;SDS_P2;PMS_P1;PMS_P2;Temp;Humidity;BMP_temperature;BMP_pressure;BME280_temperature;BME280_humidity;BME280_pressure;Samples;Min_cycle;Max_cycle;Signal;HPM_P1;HPM_P2
2024/01/06 00:05:27;;;;;;;0.60;0.60;;;;;;;17.66;52.30;99966.78;20854100;28;20056;-70
2024/01/06 00:15:28;;;;;;;0.40;0.40;;;;;;;17.67;52.02;99981.94;20851523;28;20093;-69
2024/01/06 00:25:30;;;;;;;0.40;0.40;;;;;;;17.69;51.77;100004.19;20850729;28;20045;-70
2024/01/06 00:35:32;;;;;;;0.63;0.63;;;;;;;17.67;51.76;100008.84;20859202;28;20053;-69
2024/01/06 00:45:34;;;;;;;0.60;0.60;;;;;;;17.65;51.63;100029.69;20823878;28;20049;-69
2024/01/06 00:55:36;;;;;;;1.10;0.60;;;;;;;17.63;51.54;100045.16;20838702;28;20126;-69
2024/01/06 01:05:38;;;;;;;0.82;0.82;;;;;;;17.65;51.28;100044.00;20847970;28;20102;-69
2024/01/06 01:15:40;;;;;;;0.60;0.60;;;;;;;17.68;51.01;100050.94;20851833;28;20051;-70
2024/01/06 01:25:41;;;;;;;0.68;0.68;;;;;;;17.68;50.88;100073.31;20854531;28;20057;-69
2024/01/06 01:35:43;;;;;;;0.60;0.60;;;;;;;17.68;50.73;100092.16;20833612;28;20049;-69
2024/01/06 01:45:49;;;;;;;0.80;0.77;;;;;;;17.64;50.65;100096.16;20835575;28;20049;-69
2024/01/06 01:55:52;;;;;;;0.82;0.80;;;;;;;17.57;50.78;100091.53;20847881;28;20048;-69
2024/01/06 02:05:53;;;;;;;0.98;0.90;;;;;;;17.56;50.81;100106.84;20845988;28;20060;-69
2024/01/06 02:15:55;;;;;;;1.00;0.90;;;;;;;17.50;50.83;100134.38;20887871;28;20041;-69
2024/01/06 02:25:57;;;;;;;0.70;0.70;;;;;;;17.40;50.86;100142.50;20843185;28;20053;-69
2024/01/06 02:36:00;;;;;;;0.68;0.68;;;;;;;17.46;50.63;100149.13;20867586;28;20045;-69
2024/01/06 02:46:02;;;;;;;0.93;0.93;;;;;;;17.46;50.53;100154.50;20822530;28;20497;-69
2024/01/06 02:56:04;;;;;;;0.63;0.60;;;;;;;17.43;50.31;100161.03;20862444;28;20117;-70
2024/01/06 03:06:06;;;;;;;1.10;0.70;;;;;;;17.47;50.12;100173.19;20857103;28;20053;-70
2024/01/06 03:16:08;;;;;;;1.02;0.93;;;;;;;17.53;49.76;100177.97;20842087;28;20060;-69
2024/01/06 03:26:10;;;;;;;1.10;0.82;;;;;;;17.56;49.54;100189.41;20849162;28;20043;-70
2024/01/06 03:36:13;;;;;;;1.33;1.08;;;;;;;17.55;49.48;100218.19;20830071;28;20056;-70
2024/01/06 03:46:14;;;;;;;1.20;0.90;;;;;;;17.57;49.53;100240.41;20843440;28;20072;-69
2024/01/06 03:56:16;;;;;;;0.93;0.82;;;;;;;17.59;49.33;100245.63;20838017;28;20084;-70
2024/01/06 04:06:18;;;;;;;0.88;0.80;;;;;;;17.65;49.07;100258.47;20832879;28;20048;-70
2024/01/06 04:16:20;;;;;;;1.30;1.20;;;;;;;17.69;48.92;100274.19;20850882;28;20082;-70
2024/01/06 04:26:22;;;;;;;1.10;0.80;;;;;;;17.67;48.78;100276.19;20852532;28;20069;-70
2024/01/06 04:36:24;;;;;;;0.80;0.70;;;;;;;17.69;48.77;100284.13;20857980;28;20055;-70
2024/01/06 04:46:25;;;;;;;0.82;0.82;;;;;;;17.71;48.64;100292.91;20838677;28;20059;-70
2024/01/06 04:56:27;;;;;;;1.08;0.90;;;;;;;17.77;48.31;100312.97;20838630;28;20060;-69
2024/01/06 05:06:29;;;;;;;0.93;0.93;;;;;;;17.73;48.30;100322.34;20838834;28;20397;-70
2024/01/06 05:16:31;;;;;;;0.80;0.80;;;;;;;17.73;48.44;100342.06;20859132;28;20417;-70
2024/01/06 05:26:33;;;;;;;1.20;0.80;;;;;;;17.73;48.33;100354.66;20853552;28;20053;-70
2024/01/06 05:36:34;;;;;;;0.90;0.80;;;;;;;17.81;48.13;100361.00;20848060;28;20044;-70
2024/01/06 05:46:36;;;;;;;1.40;1.00;;;;;;;17.86;47.79;100375.88;20828108;28;20525;-70
2024/01/06 05:56:38;;;;;;;0.68;0.68;;;;;;;17.93;47.62;100403.88;20837216;28;20140;-70
2024/01/06 06:06:40;;;;;;;1.13;1.00;;;;;;;17.95;47.37;100410.84;20854848;28;20056;-70
2024/01/06 06:16:42;;;;;;;0.88;0.85;;;;;;;17.95;47.44;100428.81;20852182;28;20055;-70
2024/01/06 06:26:43;;;;;;;0.95;0.82;;;;;;;17.99;47.09;100454.47;20863724;28;20452;-70
2024/01/06 06:36:46;;;;;;;0.95;0.80;;;;;;;17.98;47.02;100467.09;20851463;28;20053;-70
2024/01/06 06:46:48;;;;;;;1.30;1.05;;;;;;;18.02;46.97;100489.22;20821495;28;20176;-70
2024/01/06 06:56:50;;;;;;;0.98;0.90;;;;;;;17.99;46.68;100500.25;20841267;28;20053;-70
2024/01/06 07:06:51;;;;;;;0.80;0.80;;;;;;;17.97;46.78;100511.19;20840443;28;20048;-70
2024/01/06 07:16:53;;;;;;;1.42;0.90;;;;;;;18.01;46.88;100546.78;20841744;28;20057;-70
2024/01/06 07:26:55;;;;;;;1.27;1.00;;;;;;;17.99;46.54;100548.72;20837579;28;20422;-70
2024/01/06 07:36:57;;;;;;;0.70;0.70;;;;;;;17.96;46.64;100573.25;20819692;28;20052;-69
2024/01/06 07:46:59;;;;;;;1.40;0.93;;;;;;;17.89;46.71;100574.84;20823279;28;21017;-70
2024/01/06 07:57:01;;;;;;;2.28;1.10;;;;;;;17.74;47.43;100595.97;20831850;28;20054;-68
2024/01/06 08:07:03;;;;;;;0.98;0.80;;;;;;;17.90;47.81;100606.16;20827162;28;20436;-71
2024/01/06 08:17:05;;;;;;;2.72;1.10;;;;;;;18.06;48.49;100619.91;20840127;28;20044;-70
2024/01/06 08:27:06;;;;;;;1.17;0.70;;;;;;;18.17;49.31;100636.94;20818747;28;20057;-73
2024/01/06 08:37:08;;;;;;;1.75;0.80;;;;;;;18.30;49.13;100648.25;20848085;28;20069;-71
2024/01/06 08:47:10;;;;;;;1.27;0.95;;;;;;;18.37;48.30;100662.81;20839331;28;20513;-71
2024/01/06 08:57:12;;;;;;;1.90;1.00;;;;;;;18.38;48.03;100686.09;20854921;28;20098;-71
2024/01/06 09:07:14;;;;;;;1.73;1.00;;;;;;;18.39;47.66;100690.47;20839594;28;20044;-71
2024/01/06 09:17:16;;;;;;;1.33;1.00;;;;;;;18.39;47.61;100712.03;20813796;28;20045;-72
2024/01/06 09:27:19;;;;;;;1.23;1.00;;;;;;;18.35;47.52;100716.03;20833991;28;20059;-72
2024/01/06 09:37:21;;;;;;;1.83;1.35;;;;;;;18.37;47.28;100732.91;20864240;28;20496;-72
2024/01/06 09:47:23;;;;;;;2.75;1.20;;;;;;;18.38;46.93;100741.84;20870884;28;20440;-72
2024/01/06 09:57:26;;;;;;;1.17;1.08;;;;;;;18.40;46.84;100751.47;20887626;28;20045;-72
2024/01/06 10:07:28;;;;;;;2.30;1.20;;;;;;;18.44;46.44;100767.38;20885495;28;20054;-72
2024/01/06 10:17:30;;;;;;;1.70;1.23;;;;;;;18.41;46.55;100774.75;20852113;28;20494;-72
2024/01/06 10:27:35;;;;;;;1.55;1.10;;;;;;;18.36;46.52;100793.19;20824225;28;20444;-72
2024/01/06 10:37:36;;;;;;;;;;;;;;;18.34;46.15;100800.56;20865774;28;20467;-72
2024/01/06 10:47:42;;;;;;;2.58;1.50;;;;;;;18.32;46.43;100791.78;20860254;28;19939;-72
2024/01/06 10:57:46;;;;;;;2.60;1.90;;;;;;;18.35;46.03;100802.28;20822849;28;20049;-72
2024/01/06 11:07:51;;;;;;;2.57;1.73;;;;;;;18.40;48.21;100810.78;20828899;28;20132;-72
2024/01/06 11:17:55;;;;;;;2.50;1.88;;;;;;;18.40;49.06;100810.78;20768444;28;20064;-72
2024/01/06 11:27:58;;;;;;;2.85;1.85;;;;;;;18.36;49.01;100820.13;20735682;28;20061;-72
2024/01/06 11:38:03;;;;;;;2.65;1.67;;;;;;;18.34;49.15;100832.91;20850046;28;20063;-71
2024/01/06 11:48:07;;;;;;;2.50;1.80;;;;;;;18.34;49.04;100826.66;20801774;28;20044;-71
2024/01/06 11:58:10;;;;;;;3.50;1.80;;;;;;;18.29;49.34;100829.78;20826892;28;20056;-71
2024/01/06 12:08:11;;;;;;;2.53;1.55;;;;;;;18.29;49.22;100845.09;20804592;28;20046;-71
2024/01/06 12:18:14;;;;;;;2.35;1.80;;;;;;;18.23;49.35;100838.44;20795954;28;20045;-71
2024/01/06 12:28:16;;;;;;;2.70;1.70;;;;;;;18.24;49.26;100845.53;20821467;28;20416;-71
2024/01/06 12:38:19;;;;;;;1.60;1.45;;;;;;;18.24;48.81;100842.84;20862579;28;20046;-71
2024/01/06 12:48:21;;;;;;;1.80;1.70;;;;;;;18.22;48.41;100851.03;20803869;28;20467;-72
2024/01/06 12:58:23;;;;;;;2.20;1.90;;;;;;;18.19;48.22;100862.09;20855415;28;20044;-71
2024/01/06 13:08:25;;;;;;;1.90;1.55;;;;;;;18.17;48.43;100871.34;20855477;28;20048;-71
2024/01/06 13:18:28;;;;;;;1.88;1.63;;;;;;;18.14;47.82;100879.69;20873578;28;20045;-71
2024/01/06 13:28:30;;;;;;;2.83;2.03;;;;;;;18.14;47.72;100885.09;20836069;28;20045;-71
2024/01/06 13:38:32;;;;;;;2.50;2.00;;;;;;;18.08;47.52;100903.47;20772847;28;20413;-71
2024/01/06 13:48:33;;;;;;;2.03;1.60;;;;;;;18.05;47.35;100925.31;20793355;28;20660;-73
2024/01/06 13:58:36;;;;;;;2.17;1.70;;;;;;;18.07;47.82;100939.50;20821463;28;20488;-70
2024/01/06 14:08:37;;;;;;;2.22;1.83;;;;;;;18.10;48.19;100941.91;20822739;28;20071;-69
2024/01/06 14:18:39;;;;;;;3.08;1.60;;;;;;;18.11;49.05;100946.31;20832660;28;20417;-70
2024/01/06 14:28:41;;;;;;;2.10;1.80;;;;;;;18.13;48.71;100969.59;20844461;28;20059;-71
2024/01/06 14:38:43;;;;;;;3.13;1.60;;;;;;;18.17;48.72;100981.81;20822292;28;20053;-69
2024/01/06 14:48:45;;;;;;;3.45;2.28;;;;;;;18.20;48.94;100995.00;20837523;28;20056;-67
2024/01/06 14:58:47;;;;;;;2.25;1.85;;;;;;;18.27;50.03;101005.09;20849821;28;20076;-67
2024/01/06 15:08:49;;;;;;;2.65;1.70;;;;;;;18.27;49.67;101017.72;20827933;28;20107;-69
2024/01/06 15:18:51;;;;;;;2.10;1.63;;;;;;;18.32;49.38;101028.06;20840769;28;20068;-68
2024/01/06 15:28:53;;;;;;;1.70;1.60;;;;;;;18.29;49.10;101045.38;20835169;28;20060;-70
2024/01/06 15:38:55;;;;;;;2.80;1.92;;;;;;;18.26;48.70;101057.28;20842053;28;20498;-65
2024/01/06 15:48:57;;;;;;;1.60;1.50;;;;;;;18.18;49.07;101069.72;20833797;28;20056;-66
2024/01/06 15:58:59;;;;;;;2.33;1.65;;;;;;;18.27;48.65;101093.19;20848677;28;20044;-70
2024/01/06 16:09:01;;;;;;;3.20;2.28;;;;;;;18.13;49.85;101099.75;20821678;28;20100;-78
2024/01/06 16:19:03;;;;;;;2.83;2.00;;;;;;;17.98;50.98;101107.28;20838156;28;20568;-76
2024/01/06 16:29:05;;;;;;;4.10;2.88;;;;;;;17.63;54.13;101111.16;20812681;28;20122;-74
2024/01/06 16:39:07;;;;;;;3.92;2.67;;;;;;;17.33;57.90;101110.06;20831351;28;20060;-71
2024/01/06 16:49:09;;;;;;;3.10;2.30;;;;;;;17.23;58.35;101129.66;20831204;28;20048;-72
2024/01/06 16:59:11;;;;;;;2.58;1.98;;;;;;;17.27;57.40;101132.09;20827165;28;20126;-68
2024/01/06 17:09:13;;;;;;;2.85;1.73;;;;;;;17.12;57.00;101153.03;20831903;28;20486;-69
2024/01/06 17:19:16;;;;;;;2.60;1.70;;;;;;;17.01;56.54;101157.44;20801958;28;20159;-70
2024/01/06 17:29:18;;;;;;;2.20;1.85;;;;;;;16.91;56.41;101159.13;20819185;28;20414;-70
2024/01/06 17:39:20;;;;;;;2.15;1.92;;;;;;;16.88;56.17;101184.44;20813439;28;20071;-68
2024/01/06 17:49:22;;;;;;;2.35;1.90;;;;;;;16.88;55.88;101192.50;20796628;28;20102;-69
2024/01/06 17:59:24;;;;;;;2.70;2.13;;;;;;;17.09;55.50;101210.63;20806562;28;20202;-70
2024/01/06 18:09:27;;;;;;;4.13;2.25;;;;;;;17.07;55.02;101223.34;20823356;28;20103;-67
2024/01/06 18:19:29;;;;;;;3.75;2.55;;;;;;;17.05;55.04;101227.97;20810240;28;20059;-67
2024/01/06 18:29:33;;;;;;;2.55;2.10;;;;;;;17.11;54.16;101232.88;20842664;28;20049;-68
2024/01/06 18:39:35;;;;;;;2.45;1.80;;;;;;;17.19;53.35;101240.34;20829948;28;20049;-68
2024/01/06 18:49:37;;;;;;;2.60;1.73;;;;;;;17.17;52.81;101248.50;20830123;28;20052;-68
2024/01/06 18:59:44;;;;;;;2.13;1.88;;;;;;;17.13;52.60;101260.50;20836124;28;20059;-69
2024/01/06 19:09:45;;;;;;;1.98;1.80;;;;;;;17.15;51.78;101261.22;20844052;28;20079;-68
2024/01/06 19:19:47;;;;;;;2.97;1.70;;;;;;;17.14;51.47;101281.03;20815638;28;20104;-68
2024/01/06 19:29:52;;;;;;;2.28;1.88;;;;;;;17.18;51.12;101292.44;20823336;28;20052;-68
2024/01/06 19:39:54;;;;;;;2.45;1.95;;;;;;;17.15;50.71;101293.50;20821599;28;20118;-68
2024/01/06 19:49:56;;;;;;;2.60;1.88;;;;;;;17.19;50.38;101310.28;20817910;28;20441;-68
2024/01/06 19:59:58;;;;;;;2.63;1.90;;;;;;;17.22;49.96;101321.66;20824441;28;20057;-68
2024/01/06 20:10:00;;;;;;;2.65;2.05;;;;;;;17.26;49.41;101330.34;20844416;28;20053;-68
2024/01/06 20:20:02;;;;;;;2.70;1.83;;;;;;;17.29;48.78;101342.72;20839852;28;20045;-68
2024/01/06 20:30:05;;;;;;;1.60;1.50;;;;;;;17.35;48.88;101347.59;20844009;28;20055;-68
2024/01/06 20:40:09;;;;;;;1.92;1.52;;;;;;;17.33;48.62;101357.63;20856201;28;20126;-68
2024/01/06 20:50:11;;;;;;;4.03;2.10;;;;;;;17.22;50.93;101363.84;20844865;28;20057;-68
2024/01/06 21:00:13;;;;;;;2.85;1.80;;;;;;;17.19;51.83;101370.31;20834118;28;20053;-68
2024/01/06 21:10:15;;;;;;;3.05;1.80;;;;;;;17.21;51.34;101379.13;20854297;28;20048;-68
2024/01/06 21:20:17;;;;;;;2.45;1.90;;;;;;;17.23;51.03;101377.19;20828895;28;20049;-69
2024/01/06 21:30:19;;;;;;;3.05;2.13;;;;;;;17.24;50.83;101378.03;20827913;28;20052;-68
2024/01/06 21:40:21;;;;;;;2.15;1.73;;;;;;;17.27;50.60;101387.72;20846075;28;20045;-68
2024/01/06 21:50:24;;;;;;;2.60;1.88;;;;;;;17.26;50.23;101397.63;20831151;28;20045;-68
2024/01/06 22:00:25;;;;;;;3.40;2.38;;;;;;;17.25;50.00;101412.03;20824497;28;20049;-68
2024/01/06 22:10:32;;;;;;;2.08;1.60;;;;;;;17.25;49.63;101425.50;20826660;28;20137;-69
2024/01/06 22:20:34;;;;;;;1.80;1.60;;;;;;;17.27;49.27;101442.38;20824082;28;20513;-69
2024/01/06 22:30:35;;;;;;;2.13;1.70;;;;;;;17.31;49.04;101443.00;20837885;28;20053;-69
2024/01/06 22:40:37;;;;;;;2.45;1.63;;;;;;;17.33;48.83;101457.22;20843551;28;20509;-69
2024/01/06 22:50:40;;;;;;;2.17;1.60;;;;;;;17.34;48.30;101469.69;20861330;28;20094;-69
2024/01/06 23:00:44;;;;;;;2.45;1.73;;;;;;;17.34;48.07;101489.38;20864029;28;20421;-69
2024/01/06 23:10:47;;;;;;;2.20;1.73;;;;;;;17.34;47.98;101496.59;20848885;28;20049;-69
2024/01/06 23:20:48;;;;;;;2.83;1.83;;;;;;;17.39;47.65;101505.16;20855988;28;20049;-69
2024/01/06 23:30:50;;;;;;;1.95;1.50;;;;;;;17.39;47.43;101518.63;20852684;28;20056;-69
2024/01/06 23:40:52;;;;;;;2.20;1.60;;;;;;;17.40;47.23;101523.88;20833129;28;20055;-69
2024/01/06 23:50:54;;;;;;;1.70;1.50;;;;;;;17.51;46.80;101539.22;20845408;28;20480;-69
